Observation data for Guthrie on 05/26/2019      Previous  Date  Next       Current Mesonet Observations  Soil Data  Daily Summary Page  Observations in Plain Language
KPFS 260500Z 10008KT 23/19 A2993 RMK A01 T02250191  RH  086%=      5-min Rain = 0
KPFS 260505Z 10008KT 23/19 A2993 RMK A01 T02250192  RH  086%=      5-min Rain = 0
KPFS 260510Z 10008KT 23/19 A2993 RMK A01 T02250191  RH  086%=      5-min Rain = 0
KPFS 260515Z 09008KT 23/19 A2993 RMK A01 T02250191  RH  086%=      5-min Rain = 0
KPFS 260520Z 10010KT 23/19 A2993 RMK A01 T02250191  RH  086%=      5-min Rain = 0
KPFS 260525Z 11011KT 23/19 A2993 RMK A01 T02270191  RH  085%=      5-min Rain = 0
KPFS 260530Z 12011KT 23/19 A2993 RMK A01 T02270190  RH  084%=      5-min Rain = 0
KPFS 260535Z 12010KT 23/19 A2993 RMK A01 T02270189  RH  084%=      5-min Rain = 0
KPFS 260540Z 12011KT 23/19 A2993 RMK A01 T02270189  RH  084%=      5-min Rain = 0
KPFS 260545Z 11010KT 23/19 A2993 RMK A01 T02250189  RH  084%=      5-min Rain = 0
KPFS 260550Z 11009KT 22/19 A2993 RMK A01 T02230189  RH  086%=      5-min Rain = 0
KPFS 260555Z 11010KT 22/19 A2993 RMK A01 T02230190  RH  086%=      5-min Rain = 0
KPFS 260600Z 11009KT 22/19 A2993 RMK A01 T02210189  RH  087%=      5-min Rain = 0
KPFS 260605Z 11010KT 22/19 A2993 RMK A01 T02210190  RH  087%=      5-min Rain = 0
KPFS 260610Z 11009KT 22/19 A2993 RMK A01 T02200190  RH  088%=      5-min Rain = 0
KPFS 260615Z 11009KT 22/19 A2993 RMK A01 T02190190  RH  088%=      5-min Rain = 0
KPFS 260620Z 12009KT 22/19 A2993 RMK A01 T02180190  RH  089%=      5-min Rain = 0
KPFS 260625Z 12010KT 22/19 A2993 RMK A01 T02180190  RH  089%=      5-min Rain = 0
KPFS 260630Z 12009KT 22/19 A2993 RMK A01 T02170190  RH  089%=      5-min Rain = 0
KPFS 260635Z 12009KT 22/19 A2993 RMK A01 T02160190  RH  090%=      5-min Rain = 0
KPFS 260640Z 12010KT 22/19 A2993 RMK A01 T02160190  RH  090%=      5-min Rain = 0
KPFS 260645Z 12010KT 22/19 A2993 RMK A01 T02160189  RH  090%=      5-min Rain = 0
KPFS 260650Z 12010KT 22/19 A2993 RMK A01 T02160189  RH  089%=      5-min Rain = 0
KPFS 260655Z 13011KT 22/19 A2993 RMK A01 T02160188  RH  089%=      5-min Rain = 0
KPFS 260700Z 13010KT 22/19 A2993 RMK A01 T02160188  RH  089%=      5-min Rain = 0
KPFS 260705Z 13009KT 22/19 A2993 RMK A01 T02150187  RH  089%=      5-min Rain = 0
KPFS 260710Z 13010KT 22/19 A2993 RMK A01 T02150187  RH  089%=      5-min Rain = 0
KPFS 260715Z 13010KT 21/19 A2993 RMK A01 T02140187  RH  089%=      5-min Rain = 0
KPFS 260720Z 13010KT 21/19 A2993 RMK A01 T02140187  RH  089%=      5-min Rain = 0
KPFS 260725Z 13010KT 21/19 A2993 RMK A01 T02140186  RH  089%=      5-min Rain = 0
KPFS 260730Z 13010KT 21/19 A2993 RMK A01 T02130186  RH  089%=      5-min Rain = 0
KPFS 260735Z 13009KT 21/19 A2993 RMK A01 T02130186  RH  089%=      5-min Rain = 0
KPFS 260740Z 13009KT 21/19 A2993 RMK A01 T02120186  RH  090%=      5-min Rain = 0
KPFS 260745Z 13009KT 21/19 A2993 RMK A01 T02120186  RH  090%=      5-min Rain = 0
KPFS 260750Z 13009KT 21/19 A2994 RMK A01 T02120186  RH  090%=      5-min Rain = 0
KPFS 260755Z 14010KT 21/19 A2993 RMK A01 T02110186  RH  090%=      5-min Rain = 0
KPFS 260800Z 14009KT 21/19 A2993 RMK A01 T02110186  RH  090%=      5-min Rain = 0
KPFS 260805Z 14009KT 21/19 A2994 RMK A01 T02110186  RH  090%=      5-min Rain = 0
KPFS 260810Z 14009KT 21/19 A2994 RMK A01 T02100186  RH  091%=      5-min Rain = 0
KPFS 260815Z 14008KT 21/19 A2994 RMK A01 T02100185  RH  091%=      5-min Rain = 0
KPFS 260820Z 13008KT 21/19 A2993 RMK A01 T02090185  RH  091%=      5-min Rain = 0
KPFS 260825Z 13008KT 21/19 A2993 RMK A01 T02090185  RH  091%=      5-min Rain = 0
KPFS 260830Z 14008KT 21/19 A2993 RMK A01 T02080185  RH  091%=      5-min Rain = 0
KPFS 260835Z 14008KT 21/18 A2993 RMK A01 T02080184  RH  091%=      5-min Rain = 0
KPFS 260840Z 14008KT 21/18 A2993 RMK A01 T02070184  RH  091%=      5-min Rain = 0
KPFS 260845Z 13008KT 21/18 A2993 RMK A01 T02070184  RH  091%=      5-min Rain = 0
KPFS 260850Z 14009KT 21/18 A2993 RMK A01 T02070184  RH  092%=      5-min Rain = 0
KPFS 260855Z 14008KT 21/18 A2993 RMK A01 T02070184  RH  092%=      5-min Rain = 0
KPFS 260900Z 14008KT 21/18 A2993 RMK A01 T02060183  RH  092%=      5-min Rain = 0
KPFS 260905Z 15008KT 21/18 A2993 RMK A01 T02060184  RH  092%=      5-min Rain = 0
KPFS 260910Z 15008KT 21/18 A2993 RMK A01 T02060184  RH  092%=      5-min Rain = 0
KPFS 260915Z 14009KT 21/18 A2993 RMK A01 T02060183  RH  092%=      5-min Rain = 0
KPFS 260920Z 15009KT 21/18 A2994 RMK A01 T02050183  RH  092%=      5-min Rain = 0
KPFS 260925Z 15009KT 21/18 A2994 RMK A01 T02060183  RH  092%=      5-min Rain = 0
KPFS 260930Z 15009KT 21/18 A2993 RMK A01 T02060183  RH  092%=      5-min Rain = 0
KPFS 260935Z 15009KT 21/18 A2993 RMK A01 T02060183  RH  091%=      5-min Rain = 0
KPFS 260940Z 15009KT 21/18 A2993 RMK A01 T02060182  RH  091%=      5-min Rain = 0
KPFS 260945Z 14009KT 21/18 A2993 RMK A01 T02060183  RH  091%=      5-min Rain = 0
KPFS 260950Z 14009KT 21/18 A2993 RMK A01 T02060183  RH  091%=      5-min Rain = 0
KPFS 260955Z 15010KT 21/18 A2994 RMK A01 T02070184  RH  091%=      5-min Rain = 0
KPFS 261000Z 15011KT 21/18 A2993 RMK A01 T02070183  RH  091%=      5-min Rain = 0
KPFS 261005Z 14011G16KT 21/18 A2993 RMK A01 T02080183  RH  091%=      5-min Rain = 0
KPFS 261010Z 14011KT 21/18 A2994 RMK A01 T02080183  RH  090%=      5-min Rain = 0
KPFS 261015Z 14011KT 21/18 A2994 RMK A01 T02080182  RH  090%=      5-min Rain = 0
KPFS 261020Z 14009KT 21/18 A2994 RMK A01 T02060182  RH  090%=      5-min Rain = 0
KPFS 261025Z 15007KT 21/18 A2994 RMK A01 T02050181  RH  091%=      5-min Rain = 0
KPFS 261030Z 15007KT 20/18 A2994 RMK A01 T02030180  RH  091%=      5-min Rain = 0
KPFS 261035Z 15007KT 20/18 A2994 RMK A01 T02010180  RH  092%=      5-min Rain = 0
KPFS 261040Z 16007KT 20/18 A2995 RMK A01 T02000179  RH  092%=      5-min Rain = 0
KPFS 261045Z 16007KT 20/18 A2995 RMK A01 T01990179  RH  093%=      5-min Rain = 0
KPFS 261050Z 16006KT 20/18 A2995 RMK A01 T01990180  RH  093%=      5-min Rain = 0
KPFS 261055Z 16006KT 20/18 A2995 RMK A01 T01980179  RH  094%=      5-min Rain = 0
KPFS 261100Z 16006KT 20/18 A2996 RMK A01 T01990180  RH  094%=      5-min Rain = 0
KPFS 261105Z 16007KT 20/18 A2996 RMK A01 T01990181  RH  094%=      5-min Rain = 0
KPFS 261110Z 15007KT 20/18 A2996 RMK A01 T02000182  RH  094%=      5-min Rain = 0
KPFS 261115Z 15007KT 20/18 A2996 RMK A01 T02000182  RH  094%=      5-min Rain = 0
KPFS 261120Z 15007KT 20/18 A2996 RMK A01 T01990181  RH  094%=      5-min Rain = 0
KPFS 261125Z 14007KT 20/18 A2996 RMK A01 T01990181  RH  094%=      5-min Rain = 0
KPFS 261130Z 14007KT 20/18 A2996 RMK A01 T01990181  RH  094%=      5-min Rain = 0
KPFS 261135Z 15007KT 20/18 A2996 RMK A01 T01980180  RH  094%=      5-min Rain = 0
KPFS 261140Z 15007KT 20/18 A2996 RMK A01 T01980180  RH  094%=      5-min Rain = 0
KPFS 261145Z 15007KT 20/18 A2997 RMK A01 T01980180  RH  094%=      5-min Rain = 0
KPFS 261150Z 14007KT 20/18 A2997 RMK A01 T01980180  RH  094%=      5-min Rain = 0
KPFS 261155Z 14008KT 20/18 A2997 RMK A01 T01980181  RH  095%=      5-min Rain = 0
KPFS 261200Z 15008KT 20/18 A2997 RMK A01 T01990182  RH  095%=      5-min Rain = 0
KPFS 261205Z 15009KT 20/18 A2997 RMK A01 T02000183  RH  095%=      5-min Rain = 0
KPFS 261210Z 15010KT 20/18 A2997 RMK A01 T02010183  RH  094%=      5-min Rain = 0
KPFS 261215Z 15009KT 20/18 A2998 RMK A01 T02010183  RH  094%=      5-min Rain = 0
KPFS 261220Z 15009KT 20/18 A2998 RMK A01 T02010183  RH  094%=      5-min Rain = 0
KPFS 261225Z 15009KT 20/18 A2998 RMK A01 T02020183  RH  094%=      5-min Rain = 0
KPFS 261230Z 15008KT 20/18 A2999 RMK A01 T02020183  RH  094%=      5-min Rain = 0
KPFS 261235Z 15009KT 20/18 A2999 RMK A01 T02030183  RH  094%=      5-min Rain = 0
KPFS 261240Z 15010KT 20/18 A2999 RMK A01 T02030183  RH  093%=      5-min Rain = 0
KPFS 261245Z 14009KT 20/18 A2999 RMK A01 T02030183  RH  093%=      5-min Rain = 0
KPFS 261250Z 15009KT 20/18 A2999 RMK A01 T02040183  RH  093%=      5-min Rain = 0
KPFS 261255Z 15009KT 20/18 A30 RMK A01 T02040183  RH  093%=      5-min Rain = 0
KPFS 261300Z 15011G16KT 20/18 A30 RMK A01 T02040183  RH  092%=      5-min Rain = 0
KPFS 261305Z 15010KT 20/18 A30 RMK A01 T02040182  RH  092%=      5-min Rain = 0
KPFS 261310Z 15011KT 20/18 A30 RMK A01 T02040182  RH  092%=      5-min Rain = 0
KPFS 261315Z 15011KT 21/18 A30 RMK A01 T02050182  RH  092%=      5-min Rain = 0
KPFS 261320Z 15010G15KT 21/18 A30 RMK A01 T02050182  RH  091%=      5-min Rain = 0
KPFS 261325Z 15012KT 21/18 A3001 RMK A01 T02050182  RH  091%=      5-min Rain = 0
KPFS 261330Z 15009G14KT 21/18 A3001 RMK A01 T02060182  RH  091%=      5-min Rain = 0
KPFS 261335Z 15010KT 21/18 A3001 RMK A01 T02070183  RH  091%=      5-min Rain = 0
KPFS 261340Z 15009KT 21/18 A3001 RMK A01 T02080183  RH  090%=      5-min Rain = 0
KPFS 261345Z 14012KT 21/18 A30 RMK A01 T02080182  RH  090%=      5-min Rain = 0
KPFS 261350Z 14012KT 21/18 A30 RMK A01 T02090182  RH  089%=      5-min Rain = 0
KPFS 261355Z 14011G17KT 21/18 A3001 RMK A01 T02100182  RH  089%=      5-min Rain = 0
KPFS 261400Z 14010G15KT 21/18 A3001 RMK A01 T02110183  RH  088%=      5-min Rain = 0
KPFS 261405Z 15012KT 21/18 A3001 RMK A01 T02120182  RH  088%=      5-min Rain = 0
KPFS 261410Z 15012KT 21/18 A3001 RMK A01 T02130182  RH  087%=      5-min Rain = 0
KPFS 261415Z 14011KT 21/18 A3001 RMK A01 T02140181  RH  086%=      5-min Rain = 0
KPFS 261420Z 14012G17KT 21/18 A30 RMK A01 T02140181  RH  086%=      5-min Rain = 0
KPFS 261425Z 14013G18KT 21/18 A30 RMK A01 T02140180  RH  085%=      5-min Rain = 0
KPFS 261430Z 15014KT 21/18 A30 RMK A01 T02140179  RH  085%=      5-min Rain = 0
KPFS 261435Z 15012G17KT 22/18 A30 RMK A01 T02150179  RH  084%=      5-min Rain = 0
KPFS 261440Z 15014G20KT 22/18 A30 RMK A01 T02150178  RH  084%=      5-min Rain = 0
KPFS 261445Z 15013G19KT 22/18 A30 RMK A01 T02160178  RH  083%=      5-min Rain = 0
KPFS 261450Z 15011G17KT 22/18 A30 RMK A01 T02170179  RH  083%=      5-min Rain = 0
KPFS 261455Z 15014G19KT 22/18 A30 RMK A01 T02170177  RH  082%=      5-min Rain = 0
KPFS 261500Z 15012G18KT 22/18 A3001 RMK A01 T02170177  RH  082%=      5-min Rain = 0
KPFS 261505Z 15012G18KT 22/18 A3001 RMK A01 T02180177  RH  082%=      5-min Rain = 0
KPFS 261510Z 16012G18KT 22/18 A3001 RMK A01 T02190177  RH  081%=      5-min Rain = 0
KPFS 261515Z 16013G18KT 22/18 A3001 RMK A01 T02210178  RH  081%=      5-min Rain = 0
KPFS 261520Z 16012G18KT 22/18 A3001 RMK A01 T02220177  RH  080%=      5-min Rain = 0
KPFS 261525Z 16013G18KT 22/18 A3001 RMK A01 T02230176  RH  079%=      5-min Rain = 0
KPFS 261530Z 16013G19KT 22/18 A3001 RMK A01 T02240176  RH  078%=      5-min Rain = 0
KPFS 261535Z 16014KT 22/18 A3001 RMK A01 T02240175  RH  078%=      5-min Rain = 0
KPFS 261540Z 15014KT 23/17 A30 RMK A01 T02250174  RH  077%=      5-min Rain = 0
KPFS 261545Z 15016G22KT 23/17 A30 RMK A01 T02260174  RH  076%=      5-min Rain = 0
KPFS 261550Z 16015G22KT 23/17 A30 RMK A01 T02270173  RH  075%=      5-min Rain = 0
KPFS 261555Z 15016G23KT 23/17 A30 RMK A01 T02280173  RH  075%=      5-min Rain = 0
KPFS 261600Z 15015G20KT 23/17 A2999 RMK A01 T02290173  RH  075%=      5-min Rain = 0
KPFS 261605Z 16014G21KT 23/17 A30 RMK A01 T02290174  RH  075%=      5-min Rain = 0
KPFS 261610Z 16014G21KT 23/18 A30 RMK A01 T02290175  RH  075%=      5-min Rain = 0
KPFS 261615Z 16016G22KT 23/17 A2999 RMK A01 T02310174  RH  074%=      5-min Rain = 0
KPFS 261620Z 16015G22KT 23/17 A2999 RMK A01 T02320174  RH  074%=      5-min Rain = 0
KPFS 261625Z 16018G24KT 23/17 A2999 RMK A01 T02320172  RH  072%=      5-min Rain = 0
KPFS 261630Z 16017G24KT 24/17 A2999 RMK A01 T02350173  RH  072%=      5-min Rain = 0
KPFS 261635Z 16017G25KT 24/17 A2998 RMK A01 T02390174  RH  071%=      5-min Rain = 0
KPFS 261640Z 16018G24KT 24/17 A2998 RMK A01 T02390173  RH  070%=      5-min Rain = 0
KPFS 261645Z 16015G22KT 24/18 A2999 RMK A01 T02420175  RH  070%=      5-min Rain = 0
KPFS 261650Z 16013G20KT 24/18 A2999 RMK A01 T02410175  RH  070%=      5-min Rain = 0
KPFS 261655Z 17012G20KT 24/18 A2999 RMK A01 T02440178  RH  070%=      5-min Rain = 0
KPFS 261700Z 17018G24KT 24/18 A2999 RMK A01 T02430175  RH  069%=      5-min Rain = 0
KPFS 261705Z 17014G22KT 24/18 A2999 RMK A01 T02430177  RH  070%=      5-min Rain = 0
KPFS 261710Z 17015G21KT 25/18 A2999 RMK A01 T02460179  RH  070%=      5-min Rain = 0
KPFS 261715Z 17014G20KT 25/18 A2999 RMK A01 T02500180  RH  069%=      5-min Rain = 0
KPFS 261720Z 17015G20KT 25/18 A2999 RMK A01 T02490180  RH  069%=      5-min Rain = 0
KPFS 261725Z 17014G20KT 25/18 A2999 RMK A01 T02520182  RH  069%=      5-min Rain = 0
KPFS 261730Z 17017G22KT 25/18 A2999 RMK A01 T02470178  RH  069%=      5-min Rain = 0
KPFS 261735Z 16017G23KT 24/18 A2999 RMK A01 T02440178  RH  070%=      5-min Rain = 0
KPFS 261740Z 17016G21KT 25/18 A2999 RMK A01 T02450178  RH  070%=      5-min Rain = 0
KPFS 261745Z 18016G23KT 25/18 A2999 RMK A01 T02450179  RH  070%=      5-min Rain = 0
KPFS 261750Z 18015G21KT 25/18 A2999 RMK A01 T02450179  RH  070%=      5-min Rain = 0
KPFS 261755Z 17014G19KT 25/18 A2998 RMK A01 T02450181  RH  071%=      5-min Rain = 0
KPFS 261800Z 16016G22KT 25/18 A2998 RMK A01 T02450179  RH  070%=      5-min Rain = 0
KPFS 261805Z 17016G22KT 25/18 A2998 RMK A01 T02450179  RH  070%=      5-min Rain = 0
KPFS 261810Z 16014G19KT 25/18 A2998 RMK A01 T02460181  RH  070%=      5-min Rain = 0
KPFS 261815Z 17014KT 25/18 A2998 RMK A01 T02490182  RH  070%=      5-min Rain = 0
KPFS 261820Z 17012G17KT 25/18 A2998 RMK A01 T02510184  RH  070%=      5-min Rain = 0
KPFS 261825Z 16014G19KT 25/18 A2998 RMK A01 T02510182  RH  069%=      5-min Rain = 0
KPFS 261830Z 16013KT 25/18 A2998 RMK A01 T02520183  RH  069%=      5-min Rain = 0
KPFS 261835Z 16012KT 25/18 A2998 RMK A01 T02530184  RH  069%=      5-min Rain = 0
KPFS 261840Z 16013KT 25/18 A2998 RMK A01 T02510182  RH  069%=      5-min Rain = 0
KPFS 261845Z 17013KT 25/18 A2998 RMK A01 T02520184  RH  070%=      5-min Rain = 0
KPFS 261850Z 17015G20KT 26/18 A2998 RMK A01 T02550183  RH  068%=      5-min Rain = 0
KPFS 261855Z 17014G19KT 26/18 A2998 RMK A01 T02560184  RH  068%=      5-min Rain = 0
KPFS 261900Z 17014G19KT 25/18 A2997 RMK A01 T02540183  RH  068%=      5-min Rain = 0
KPFS 261905Z 17013G20KT 25/18 A2997 RMK A01 T02520183  RH  069%=      5-min Rain = 0
KPFS 261910Z 16013KT 25/19 A2998 RMK A01 T02520186  RH  070%=      5-min Rain = 0
KPFS 261915Z 16014G21KT 25/19 A2997 RMK A01 T02540185  RH  069%=      5-min Rain = 0
KPFS 261920Z 16014G19KT 25/18 A2997 RMK A01 T02530184  RH  069%=      5-min Rain = 0
KPFS 261925Z 16013KT 25/19 A2997 RMK A01 T02530185  RH  070%=      5-min Rain = 0
KPFS 261930Z 17013G18KT 25/19 A2997 RMK A01 T02530185  RH  070%=      5-min Rain = 0
KPFS 261935Z 17013KT 25/18 A2997 RMK A01 T02520184  RH  070%=      5-min Rain = 0
KPFS 261940Z 17010KT 25/19 A2997 RMK A01 T02510186  RH  071%=      5-min Rain = 0
KPFS 261945Z 17011G16KT 25/19 A2997 RMK A01 T02540187  RH  070%=      5-min Rain = 0
KPFS 261950Z 18013G19KT 26/19 A2997 RMK A01 T02550186  RH  069%=      5-min Rain = 0
KPFS 261955Z 18011G16KT 26/19 A2997 RMK A01 T02570187  RH  069%=      5-min Rain = 0
KPFS 262000Z 18011KT 26/19 A2997 RMK A01 T02600188  RH  068%=      5-min Rain = 0
KPFS 262005Z 19008KT 26/19 A2997 RMK A01 T02590189  RH  069%=      5-min Rain = 0
KPFS 262010Z 17010G15KT 26/19 A2998 RMK A01 T02560188  RH  070%=      5-min Rain = 0
KPFS 262015Z 16011KT 25/19 A2998 RMK A01 T02540187  RH  070%=      5-min Rain = 0
KPFS 262020Z 16010G15KT 25/19 A2998 RMK A01 T02540188  RH  070%=      5-min Rain = 0
KPFS 262025Z 16012G17KT 25/19 A2998 RMK A01 T02540187  RH  070%=      5-min Rain = 0
KPFS 262030Z 17011KT 25/19 A2998 RMK A01 T02540189  RH  071%=      5-min Rain = 0
KPFS 262035Z 17011G16KT 26/19 A2997 RMK A01 T02560188  RH  070%=      5-min Rain = 0
KPFS 262040Z 17013G18KT 25/19 A2997 RMK A01 T02540186  RH  069%=      5-min Rain = 0
KPFS 262045Z 17015G20KT 25/18 A2997 RMK A01 T02540183  RH  069%=      5-min Rain = 0
KPFS 262050Z 18012G17KT 25/18 A2997 RMK A01 T02520184  RH  070%=      5-min Rain = 0
KPFS 262055Z 17011KT 25/19 A2997 RMK A01 T02510186  RH  071%=      5-min Rain = 0
KPFS 262100Z 17010KT 25/19 A2996 RMK A01 T02510186  RH  071%=      5-min Rain = 0
KPFS 262105Z 17012G17KT 25/19 A2996 RMK A01 T02510185  RH  071%=      5-min Rain = 0
KPFS 262110Z 17012KT 25/19 A2996 RMK A01 T02510185  RH  070%=      5-min Rain = 0
KPFS 262115Z 17010KT 25/19 A2996 RMK A01 T02500187  RH  072%=      5-min Rain = 0
KPFS 262120Z 16010KT 25/19 A2996 RMK A01 T02490188  RH  073%=      5-min Rain = 0
KPFS 262125Z 16011KT 25/19 A2995 RMK A01 T02500188  RH  073%=      5-min Rain = 0
KPFS 262130Z 16011KT 25/19 A2995 RMK A01 T02500189  RH  073%=      5-min Rain = 0
KPFS 262135Z 16011KT 25/19 A2995 RMK A01 T02500189  RH  073%=      5-min Rain = 0
KPFS 262140Z 16012G17KT 25/19 A2995 RMK A01 T02510189  RH  072%=      5-min Rain = 0
KPFS 262145Z 16012G18KT 25/19 A2994 RMK A01 T02540190  RH  072%=      5-min Rain = 0
KPFS 262150Z 16015KT 26/19 A2994 RMK A01 T02570190  RH  070%=      5-min Rain = 0
KPFS 262155Z 16015G20KT 26/19 A2994 RMK A01 T02590189  RH  069%=      5-min Rain = 0
KPFS 262200Z 16015G20KT 26/19 A2994 RMK A01 T02570188  RH  069%=      5-min Rain = 0
KPFS 262205Z 16016G21KT 26/19 A2994 RMK A01 T02570188  RH  070%=      5-min Rain = 0
KPFS 262210Z 16013G18KT 26/19 A2993 RMK A01 T02580191  RH  070%=      5-min Rain = 0
KPFS 262215Z 16013G20KT 26/19 A2993 RMK A01 T02600191  RH  069%=      5-min Rain = 0
KPFS 262220Z 17014KT 26/19 A2993 RMK A01 T02600190  RH  069%=      5-min Rain = 0
KPFS 262225Z 17014G20KT 26/19 A2993 RMK A01 T02590190  RH  070%=      5-min Rain = 0
KPFS 262230Z 16011G17KT 26/19 A2993 RMK A01 T02580191  RH  071%=      5-min Rain = 0
KPFS 262235Z 16016G22KT 26/19 A2993 RMK A01 T02550190  RH  071%=      5-min Rain = 0
KPFS 262240Z 16014G19KT 25/19 A2992 RMK A01 T02540190  RH  071%=      5-min Rain = 0
KPFS 262245Z 15012G17KT 25/19 A2992 RMK A01 T02540191  RH  072%=      5-min Rain = 0
KPFS 262250Z 15013KT 26/19 A2991 RMK A01 T02550192  RH  072%=      5-min Rain = 0
KPFS 262255Z 15014KT 26/19 A2991 RMK A01 T02560192  RH  072%=      5-min Rain = 0
KPFS 262300Z 15015G21KT 26/19 A2991 RMK A01 T02580192  RH  071%=      5-min Rain = 0
KPFS 262305Z 15013KT 26/19 A2991 RMK A01 T02590192  RH  070%=      5-min Rain = 0
KPFS 262310Z 15014G20KT 26/19 A2991 RMK A01 T02580192  RH  070%=      5-min Rain = 0
KPFS 262315Z 15016KT 26/19 A299 RMK A01 T02580190  RH  070%=      5-min Rain = 0
KPFS 262320Z 15015G22KT 26/19 A299 RMK A01 T02570190  RH  070%=      5-min Rain = 0
KPFS 262325Z 15012G17KT 26/19 A2989 RMK A01 T02560191  RH  071%=      5-min Rain = 0
KPFS 262330Z 14012KT 26/19 A2988 RMK A01 T02550191  RH  072%=      5-min Rain = 0
KPFS 262335Z 14014G19KT 25/19 A2988 RMK A01 T02540191  RH  072%=      5-min Rain = 0
KPFS 262340Z 14014G20KT 25/19 A2987 RMK A01 T02530190  RH  072%=      5-min Rain = 0
KPFS 262345Z 13014G19KT 25/19 A2986 RMK A01 T02520190  RH  072%=      5-min Rain = 0
KPFS 262350Z 14013G18KT 25/19 A2986 RMK A01 T02520190  RH  072%=      5-min Rain = 0
KPFS 262355Z 15011G16KT 25/19 A2987 RMK A01 T02520190  RH  072%=      5-min Rain = 0
KPFS 270000Z 15010KT 25/19 A2987 RMK A01 T02530190  RH  072%=      5-min Rain = 0
KPFS 270005Z 15008KT 25/19 A2987 RMK A01 T02530190  RH  072%=      5-min Rain = 0
KPFS 270010Z 15008KT 25/19 A2987 RMK A01 T02520190  RH  072%=      5-min Rain = 0
KPFS 270015Z 15008KT 25/19 A2988 RMK A01 T02530190  RH  072%=      5-min Rain = 0
KPFS 270020Z 15009KT 25/19 A2988 RMK A01 T02540190  RH  072%=      5-min Rain = 0
KPFS 270025Z 14008KT 26/19 A2988 RMK A01 T02550191  RH  072%=      5-min Rain = 0
KPFS 270030Z 14009KT 26/19 A2987 RMK A01 T02550190  RH  071%=      5-min Rain = 0
KPFS 270035Z 14010KT 25/19 A2987 RMK A01 T02540190  RH  072%=      5-min Rain = 0
KPFS 270040Z 14010KT 25/19 A2987 RMK A01 T02530190  RH  072%=      5-min Rain = 0
KPFS 270045Z 14010KT 25/19 A2986 RMK A01 T02530190  RH  072%=      5-min Rain = 0
KPFS 270050Z 14012G17KT 25/19 A2986 RMK A01 T02530189  RH  072%=      5-min Rain = 0
KPFS 270055Z 14012KT 25/19 A2986 RMK A01 T02530188  RH  071%=      5-min Rain = 0
KPFS 270100Z 14014G20KT 26/19 A2985 RMK A01 T02550186  RH  070%=      5-min Rain = 0
KPFS 270105Z 13015G20KT 26/19 A2984 RMK A01 T02560185  RH  068%=      5-min Rain = 0
KPFS 270110Z 13015G22KT 26/18 A2983 RMK A01 T02560184  RH  068%=      5-min Rain = 0
KPFS 270115Z 14014G20KT 26/18 A2983 RMK A01 T02560183  RH  067%=      5-min Rain = 0
KPFS 270120Z 14015G21KT 26/18 A2983 RMK A01 T02560181  RH  067%=      5-min Rain = 0
KPFS 270125Z 14014G19KT 25/18 A2983 RMK A01 T02540180  RH  067%=      5-min Rain = 0
KPFS 270130Z 14013G18KT 25/18 A2983 RMK A01 T02530179  RH  067%=      5-min Rain = 0
KPFS 270135Z 14012G18KT 25/18 A2983 RMK A01 T02520178  RH  067%=      5-min Rain = 0
KPFS 270140Z 15012G17KT 25/18 A2984 RMK A01 T02510178  RH  067%=      5-min Rain = 0
KPFS 270145Z 16012KT 25/18 A2985 RMK A01 T02490178  RH  068%=      5-min Rain = 0
KPFS 270150Z 15012G18KT 25/18 A2984 RMK A01 T02480177  RH  068%=      5-min Rain = 0
KPFS 270155Z 15012KT 25/18 A2983 RMK A01 T02470176  RH  068%=      5-min Rain = 0
KPFS 270200Z 15012KT 25/18 A2983 RMK A01 T02460176  RH  068%=      5-min Rain = 0
KPFS 270205Z 15012G17KT 25/18 A2983 RMK A01 T02450176  RH  069%=      5-min Rain = 0
KPFS 270210Z 15012KT 25/18 A2983 RMK A01 T02450176  RH  069%=      5-min Rain = 0
KPFS 270215Z 15011G16KT 24/18 A2983 RMK A01 T02440176  RH  069%=      5-min Rain = 0
KPFS 270220Z 15009G15KT 24/18 A2984 RMK A01 T02420176  RH  070%=      5-min Rain = 0
KPFS 270225Z 15010KT 24/18 A2984 RMK A01 T02400176  RH  071%=      5-min Rain = 0
KPFS 270230Z 15011KT 24/18 A2984 RMK A01 T02400176  RH  071%=      5-min Rain = 0
KPFS 270235Z 15009KT 24/18 A2984 RMK A01 T02400176  RH  071%=      5-min Rain = 0
KPFS 270240Z 15009KT 24/18 A2984 RMK A01 T02380176  RH  072%=      5-min Rain = 0
KPFS 270245Z 16008KT 24/18 A2984 RMK A01 T02370176  RH  072%=      5-min Rain = 0
KPFS 270250Z 16007KT 24/18 A2985 RMK A01 T02350176  RH  073%=      5-min Rain = 0
KPFS 270255Z 16008KT 24/18 A2985 RMK A01 T02350176  RH  073%=      5-min Rain = 0
KPFS 270300Z 16009KT 24/18 A2985 RMK A01 T02360176  RH  073%=      5-min Rain = 0
KPFS 270305Z 16009KT 24/18 A2985 RMK A01 T02360176  RH  073%=      5-min Rain = 0
KPFS 270310Z 16009KT 24/18 A2985 RMK A01 T02350177  RH  073%=      5-min Rain = 0
KPFS 270315Z 16008G13KT 24/18 A2985 RMK A01 T02350177  RH  074%=      5-min Rain = 0
KPFS 270320Z 16006KT 23/18 A2986 RMK A01 T02340177  RH  074%=      5-min Rain = 0
KPFS 270325Z 17005KT 23/18 A2987 RMK A01 T02330176  RH  074%=      5-min Rain = 0
KPFS 270330Z 17003KT 23/18 A2987 RMK A01 T02320176  RH  075%=      5-min Rain = 0
KPFS 270335Z 16003KT 23/18 A2987 RMK A01 T02300176  RH  075%=      5-min Rain = 0
KPFS 270340Z 14003KT 23/18 A2987 RMK A01 T02290176  RH  076%=      5-min Rain = 0
KPFS 270345Z 15004KT 23/18 A2987 RMK A01 T02270176  RH  076%=      5-min Rain = 0
KPFS 270350Z 15004KT 23/18 A2987 RMK A01 T02250176  RH  078%=      5-min Rain = 0
KPFS 270355Z 15004KT 22/18 A2987 RMK A01 T02240176  RH  078%=      5-min Rain = 0
KPFS 270400Z 16004KT 22/18 A2987 RMK A01 T02230176  RH  078%=      5-min Rain = 0
KPFS 270405Z 16003KT 22/18 A2987 RMK A01 T02220176  RH  079%=      5-min Rain = 0
KPFS 270410Z 15003KT 22/18 A2987 RMK A01 T02210176  RH  079%=      5-min Rain = 0
KPFS 270415Z 12003KT 22/18 A2987 RMK A01 T02190175  RH  080%=      5-min Rain = 0
KPFS 270420Z 11004KT 21/17 A2987 RMK A01 T02140174  RH  082%=      5-min Rain = 0
KPFS 270425Z 11005KT 21/18 A2987 RMK A01 T02140176  RH  083%=      5-min Rain = 0
KPFS 270430Z 11006KT 22/18 A2986 RMK A01 T02160177  RH  082%=      5-min Rain = 0
KPFS 270435Z 11007KT 22/18 A2986 RMK A01 T02180177  RH  081%=      5-min Rain = 0
KPFS 270440Z 11007KT 22/18 A2986 RMK A01 T02180176  RH  081%=      5-min Rain = 0
KPFS 270445Z 11007KT 22/18 A2986 RMK A01 T02170176  RH  081%=      5-min Rain = 0
KPFS 270450Z 11006KT 22/18 A2986 RMK A01 T02170176  RH  081%=      5-min Rain = 0
KPFS 270455Z 11007KT 22/18 A2986 RMK A01 T02170176  RH  081%=      5-min Rain = 0

Page generated in 0.0091 seconds.